Glio-Blastoff 5K Run/Walk

Overall Female Overall Winners
Chip Gun
Place Name City Bib No Age Overall Time Time Pace
1 Diane Nielsen Ann Arbor MI 167 70 7 21:51.0 21:51.0 7:03/M
2 Cheryl Ambroza Ann Arbor MI 1 37 14 23:40.9 23:40.9 7:38/M
3 Rasa Miller Saline MI 154 33 23 24:40.1 24:40.1 7:57/M

Overall Male Overall Winners
Chip Gun
Place Name City Bib No Age Overall Time Time Pace
1 Benjamin Whittam Nashville TN 245 30 1 20:10.8 20:10.8 6:30/M
2 Bryan Gurczynski Canton MI 70 28 2 20:27.4 20:27.4 6:36/M
3 Michael McCormack Canton MI 139 54 3 20:42.4 20:42.4 6:41/M

Overall Female Masters Winners
Chip Gun
Place Name City Bib No Age Overall Time Time Pace
1 Allison Stupka Ann Arbor MI 214 48 26 25:00.3 25:00.3 8:04/M
2 Erika Heinrich Ann Arbor MI 81 44 37 26:32.9 26:32.9 8:34/M
3 Nelda Mercer Ann Arbor MI 149 62 41 27:15.8 27:15.8 8:47/M

Overall Male Masters Winners
Chip Gun
Place Name City Bib No Age Overall Time Time Pace
1 Paul Youngs Brownstown MI 285 45 11 23:26.5 23:26.5 7:34/M
2 Jason Heth Ann Arbor MI 90 41 16 24:05.0 24:05.0 7:46/M
3 Joe Evans Ypsilanti MI 273 57 18 24:11.7 24:11.7 7:48/M

Female 14 & under
Chip Gun
Place Name City Bib No Age Overall Time Time Pace
1 Hannah Chapman Brighton MI 33 13 35 26:21.5 26:21.5 8:30/M
2 Gabrielle Harris Pinckney MI 77 13 36 26:21.6 26:21.6 8:30/M
3 Tea Greca Brownstown MI 68 13 58 29:36.4 29:36.4 9:33/M
4 Sydney Heinrich Ann Arbor MI 84 13 94 34:17.1 34:17.1 11:04/M
5 Sara Yilmaz Winter Springs FL 263 14 104 35:50.4 35:50.4 11:34/M
6 Jadeson Manning Howell MI 315 12 114 37:17.1 37:17.1 12:02/M
7 Kaitlyn Depriest Canton MI 300 13 119 39:13.5 39:13.5 12:39/M
8 Emily Cingel Pinckney MI 43 11 165 51:06.5 51:06.5 16:29/M
9 Elizabeth Chapman Brighton MI 31 11 166 51:06.5 51:06.5 16:29/M
10 Rachel Smith Chesterfield MI 200 13 259 1:05:45.1 1:05:45.1 21:13/M
11 Samantha Michelini Chesterfield MI 153 14 260 1:05:45.7 1:05:45.7 21:13/M
12 Kierra McQuerry Shelby MI 309 14 261 1:05:45.9 1:05:45.9 21:13/M
13 Elizabeth Parks Fenton MI 277 7 263 1:08:11.4 1:08:11.4 22:00/M

Male 14 & under
Chip Gun
Place Name City Bib No Age Overall Time Time Pace
1 Michael Strayer Howell MI 211 13 12 23:27.3 23:27.3 7:34/M
2 Ross Heinrich Ann Arbor MI 83 11 25 24:59.2 24:59.2 8:04/M
3 Ian Manning Howell MI 314 9 29 25:33.7 25:33.7 8:15/M
4 Bryce Smith Canton MI 197 11 93 33:57.7 33:57.7 10:57/M
5 Owen Murdock Ann Arbor MI 161 3 106 35:59.6 35:59.6 11:36/M
6 Ian Williamson Wyandotte MI 249 13 129 41:08.6 41:08.6 13:16/M
7 Tyler Preece Canton MI 177 9 135 46:44.0 46:44.0 15:05/M
8 Steve Kernohe Livonia MI 301 13 140 47:09.2 47:09.2 15:13/M
9 Connor McCaffrey Berkley MI 136 8 146 48:02.8 48:02.8 15:30/M

Female 15 to 19
Chip Gun
Place Name City Bib No Age Overall Time Time Pace
1 Sara Watson Belleville MI 241 17 122 39:19.5 39:19.5 12:41/M
2 Rachel Dybicki Belleville MI 303 18 124 40:01.4 40:01.4 12:55/M
3 Elizabeth Roebock Whitmore Lake MI 320 15 147 48:17.0 48:17.0 15:35/M
4 Allison Nelson Wyandotte MI 163 19 179 53:13.5 53:13.5 17:10/M
5 Kristy Chapman Saline MI 36 18 194 56:09.6 56:09.6 18:07/M
6 Kelsey Chapman Saline MI 35 15 196 56:09.9 56:09.9 18:07/M

Male 15 to 19
Chip Gun
Place Name City Bib No Age Overall Time Time Pace
1 Blake Lombardo Macomb MI 128 16 115 38:20.5 38:20.5 12:22/M
2 Robert Jones Belleville MI 107 15 121 39:15.8 39:15.8 12:40/M
3 Greg Stewart Northville MI 291 15 206 57:56.5 57:56.5 18:41/M
4 Brandon Stewart Westland MI 278 16 207 57:56.5 57:56.5 18:41/M

Female 20 to 24
Chip Gun
Place Name City Bib No Age Overall Time Time Pace
1 Jenna Leahy Phoenix AZ 126 22 28 25:32.3 25:32.3 8:14/M
2 Becky McCormack Canton MI 281 22 64 30:00.5 30:00.5 9:41/M
3 Stephanie D'Agostin Chesterfield MI 52 23 83 32:48.4 32:48.4 10:35/M
4 Hana Wantuck Ypsilanti MI 238 24 98 35:07.8 35:07.8 11:20/M
5 Brenna Reynolds Ann Arbor MI 180 22 110 36:41.8 36:41.8 11:50/M
6 Amanda Taylor Sterling Hts MI 218 22 192 56:02.5 56:02.5 18:05/M
7 Katie Chapman Saline MI 34 21 201 56:47.7 56:47.7 18:19/M
8 Lindsay Stoyka Saint Clair Shores 208 21 234 1:00:37.5 1:00:37.5 19:33/M
9 Allyson Zelinski Ann Arbor MI 318 21 235 1:00:37.8 1:00:37.8 19:33/M
10 Caitlin Kimball Sterling Heights M 110 22 238 1:01:05.4 1:01:05.4 19:42/M
11 Jennifer Bowen Sterling Heights M 275 24 245 1:02:55.3 1:02:55.3 20:18/M

Male 20 to 24
Chip Gun
Place Name City Bib No Age Overall Time Time Pace
1 Andrew Whittam Tempe AZ 244 24 30 25:40.8 25:40.8 8:17/M
2 Jacob Jones Macomb MI 106 23 84 32:48.6 32:48.6 10:35/M
3 George Jansson Ann Arbor MI 101 24 88 33:14.3 33:14.3 10:43/M
4 Victor Browning Canton MI 22 20 197 56:10.1 56:10.1 18:07/M
5 Jordan Hess Eastpointe MI 89 21 233 1:00:37.4 1:00:37.4 19:33/M
6 David Stewart Northville MI 293 22 253 1:05:23.9 1:05:23.9 21:05/M

Female 25 to 29
Chip Gun
Place Name City Bib No Age Overall Time Time Pace
1 Dalia Gutierrez Belleville MI 71 25 40 26:56.2 26:56.2 8:41/M
2 Jillian Tweedie Canton MI 222 29 55 29:27.7 29:27.7 9:30/M
3 Marybeth Ketko Northville MI 108 27 61 29:57.2 29:57.2 9:40/M
4 Carolyn Catlett Milan MI 28 29 89 33:18.7 33:18.7 10:45/M
5 Brittany Sandefur Ann Arbor MI 186 25 92 33:46.9 33:46.9 10:54/M
6 Beth Winger Royal Oak MI 256 28 96 34:39.6 34:39.6 11:11/M
7 Sara Shefferly Ypsilanti MI 195 29 99 35:08.8 35:08.8 11:20/M
8 Erin Varilone Farmington Hills M 225 25 102 35:45.0 35:45.0 11:32/M
9 Kristin Evon Ann Arbor MI 58 27 108 36:23.1 36:23.1 11:44/M
10 Mandy Kulman Lexington MI 119 25 112 36:43.6 36:43.6 11:51/M
11 Rebecca Hill Ann Arbor MI 94 28 127 41:03.6 41:03.6 13:15/M
12 Kiri Sailiata Ann Arbor MI 184 27 128 41:03.7 41:03.7 13:15/M
13 Jessica Henry Haslett MI 85 27 159 50:21.8 50:21.8 16:15/M
14 Heather Walk South Lyon MI 233 27 185 54:24.8 54:24.8 17:33/M
15 Emily Neumann Clio MI 312 27 186 54:25.0 54:25.0 17:33/M
16 Megan Ventura Farmington Hills M 227 27 204 57:31.8 57:31.8 18:33/M
17 Rebekah Sloup East Lansing MI 196 27 228 59:58.4 59:58.4 19:21/M
18 Rim Safadi Lansing MI 183 27 232 1:00:04.3 1:00:04.3 19:23/M

Male 25 to 29
Chip Gun
Place Name City Bib No Age Overall Time Time Pace
1 James Rasmussen Farmington Hills M 179 28 15 23:55.7 23:55.7 7:43/M
2 Jared Aymen Clinton MI 4 27 70 30:40.0 30:40.0 9:54/M
3 Greg Theunick Freeland MI 272 27 74 31:37.0 31:37.0 10:12/M
4 Flavio Mosci East Lansing MI 160 25 227 59:54.6 59:54.6 19:19/M
5 Kyle Horton Sterling Heights M 276 25 248 1:02:59.0 1:02:59.0 20:19/M

Female 30 to 34
Chip Gun
Place Name City Bib No Age Overall Time Time Pace
1 Kara Willis Macomb MI 250 34 62 29:57.6 29:57.6 9:40/M
2 Teresa Bergholz Ithaca NY 11 32 100 35:10.5 35:10.5 11:21/M
3 Pennelope Blakely Ann Arbor MI 13 30 107 36:00.1 36:00.1 11:37/M
4 Kelly Meredith Canton MI 150 34 111 36:43.5 36:43.5 11:51/M
5 Melanie Gerlach Plymouth MI 66 31 120 39:13.5 39:13.5 12:39/M
6 Lori Hall Dryden MI 72 34 163 51:04.4 51:04.4 16:28/M
7 Sarah Hartley Ypsilanti MI 80 32 212 58:14.6 58:14.6 18:47/M
8 Sima Saberi Ann Arbor MI 182 33 214 58:15.5 58:15.5 18:47/M
9 Staci Valley Ferndale MI 223 32 215 58:16.5 58:16.5 18:48/M
10 Elly Chichester Grosse Pte Woods M 311 33 216 58:17.1 58:17.1 18:48/M
11 Kelly Gerlach Commerce Township 64 34 217 58:17.6 58:17.6 18:48/M
12 Kathleen Krill Howell MI 117 31 222 59:10.2 59:10.2 19:05/M
13 Stephanie Henson Highland MI 87 33 242 1:02:15.1 1:02:15.1 20:05/M
14 Sarah Brace Lansing MI 17 33 243 1:02:35.4 1:02:35.4 20:11/M

Male 30 to 34
Chip Gun
Place Name City Bib No Age Overall Time Time Pace
1 Justin Kunkle Lansing MI 283 33 10 22:28.2 22:28.2 7:15/M
2 Jeff Lampi East Lansing MI 286 33 13 23:37.0 23:37.0 7:37/M
3 Seth Walk South Lyon MI 234 34 17 24:10.5 24:10.5 7:48/M
4 Garan Woods Pinckney MI 261 34 19 24:20.3 24:20.3 7:51/M
5 Stephen Lalor Ann Arbor MI 122 30 22 24:29.5 24:29.5 7:54/M
6 Dean Piper Livonia MI 175 34 32 26:01.1 26:01.1 8:24/M
7 Jeremy Watson Belleville MI 240 33 39 26:52.7 26:52.7 8:40/M
8 Tony Schilmiller Lansing MI 187 33 68 30:21.9 30:21.9 9:47/M
9 Greg Meehan Royal Oak MI 148 34 90 33:25.0 33:25.0 10:47/M
10 Ryan Taber Lansing MI 217 33 190 55:45.0 55:45.0 17:59/M
11 Chad Brace Lansing MI 16 32 240 1:01:28.8 1:01:28.8 19:50/M
12 Michael Witt Berkley MI 270 33 249 1:03:19.3 1:03:19.3 20:25/M

Female 35 to 39
Chip Gun
Place Name City Bib No Age Overall Time Time Pace
1 Jenefer Jedele Ypsilanti MI 104 37 24 24:40.3 24:40.3 7:57/M
2 Mariza Brimhall Ann Arbor MI 19 38 50 28:34.1 28:34.1 9:13/M
3 Suzanne Stegeman Plymouth MI 207 39 53 29:08.4 29:08.4 9:24/M
4 Kristine Komives Ypsilanti MI 116 39 60 29:38.7 29:38.7 9:34/M
5 Laura Settles Tipton MI 193 35 67 30:21.1 30:21.1 9:47/M
6 Brannon Wickham Madison Hts MI 247 35 73 31:35.1 31:35.1 10:11/M
7 Mandie Chapman Pinckney MI 37 35 80 32:22.7 32:22.7 10:26/M
8 Christie Byrne Pinckney MI 25 36 81 32:22.9 32:22.9 10:26/M
9 Julie McGurk Novi MI 145 37 91 33:32.1 33:32.1 10:49/M
10 April Woods Pinckney MI 260 37 101 35:43.5 35:43.5 11:31/M
11 Veronica Smith Canton MI 202 37 105 35:51.7 35:51.7 11:34/M
12 Kathleen Klenczar Commerce Township 113 36 117 38:29.2 38:29.2 12:25/M
13 Jill Settles Clinton MI 284 36 138 46:59.1 46:59.1 15:09/M
14 Penny Smith Berkley MI 199 36 143 47:30.6 47:30.6 15:19/M
15 Kim Landris Dexter MI 123 37 144 47:30.7 47:30.7 15:19/M
16 Mary Ellen Seymour Royal Oak MI 194 38 152 49:01.1 49:01.1 15:49/M
17 Cheri Murphy Canton MI 162 35 156 50:01.0 50:01.0 16:08/M
18 Lisa Brohl Sterling Heights M 20 36 162 51:04.3 51:04.3 16:28/M
19 Helen Vontom Hamburg MI 230 38 176 52:08.4 52:08.4 16:49/M
20 Heather Carrigan Lansing MI 27 39 191 55:45.1 55:45.1 17:59/M
21 Julie Corey Ann Arbor MI 50 38 265 1:10:13.6 1:10:13.6 22:39/M

Male 35 to 39
Chip Gun
Place Name City Bib No Age Overall Time Time Pace
1 Adam Suliman Ypsilanti MI 215 37 4 20:56.1 20:56.1 6:45/M
2 Jeremy Hallum Ann Arbor MI 74 37 5 21:12.6 21:12.6 6:50/M
3 Alec MacGillis Ann Arbor MI 290 36 6 21:50.7 21:50.7 7:03/M
4 Kevin White Ypsilanti MI 243 36 8 22:17.0 22:17.0 7:11/M
5 Tony Ambroza Ann Arbor MI 2 39 9 22:24.2 22:24.2 7:14/M
6 Steven Fisher Royal Oak MI 60 37 21 24:23.8 24:23.8 7:52/M
7 David Studt Clarkston MI 212 36 27 25:01.4 25:01.4 8:04/M
8 Rodney Roach Augusta MI 282 37 31 25:45.5 25:45.5 8:18/M
9 Ryan Meredith Canton MI 151 36 33 26:10.8 26:10.8 8:26/M
10 Subu Desaraju Plymouth MI 267 36 44 27:45.6 27:45.6 8:57/M
11 Ray Hall Dryden MI 73 35 56 29:31.5 29:31.5 9:31/M
12 Brian Stranyak Trenton MI 210 36 78 31:55.3 31:55.3 10:18/M
13 Michael McCaffrey Berkley MI 138 38 153 49:08.8 49:08.8 15:51/M
14 Dan Vontom Hamburg MI 229 36 168 51:16.7 51:16.7 16:32/M
15 Matthew Gerlach Commerce Township 65 35 220 58:19.8 58:19.8 18:49/M
16 Kevin Krill Howell MI 118 36 221 59:10.2 59:10.2 19:05/M
17 Jason Molesworth Ann Arbor MI 310 38 226 59:30.7 59:30.7 19:12/M

Female 40 to 44
Chip Gun
Place Name City Bib No Age Overall Time Time Pace
1 Amy Griffin Clinton MI 69 40 47 28:02.6 28:02.6 9:03/M
2 Rebecca Molesworth Ann Arbor MI 156 40 59 29:38.6 29:38.6 9:34/M
3 Christina Suliman Ypsilanti MI 216 40 76 31:44.9 31:44.9 10:14/M
4 Kelley Diegel Madison Heights MI 55 42 97 35:06.0 35:06.0 11:19/M
5 Donna Lombardo Macomb MI 130 44 116 38:20.7 38:20.7 12:22/M
6 Kim Dybicki Belleville MI 304 43 123 39:31.9 39:31.9 12:45/M
7 Lauren Parks Fenton MI 171 40 126 40:42.0 40:42.0 13:08/M
8 Andrea Bossio White Lake MI 14 42 149 48:43.2 48:43.2 15:43/M
9 Sharon Chapman Brighton MI 40 43 172 52:03.9 52:03.9 16:47/M
10 Amy Williamson Wyandotte MI 248 41 180 53:13.8 53:13.8 17:10/M
11 Annette Houstin Whitmore Lake MI 296 44 182 53:20.0 53:20.0 17:12/M
12 Allana Richmond Ypsilanti MI 181 40 187 54:27.6 54:27.6 17:34/M
13 Laura Hopkins Ypsilanti MI 98 42 193 56:09.5 56:09.5 18:07/M
14 Dianna Behl Okemos MI 306 44 223 59:10.9 59:10.9 19:05/M
15 Shannon Manning Howell MI 134 40 229 59:58.5 59:58.5 19:21/M
16 Molly Indura Ann Arbor MI 100 40 241 1:02:12.1 1:02:12.1 20:04/M
17 Kim Michelini Chesterfield MI 152 44 258 1:05:44.0 1:05:44.0 21:12/M

Male 40 to 44
Chip Gun
Place Name City Bib No Age Overall Time Time Pace
1 Randy Smith Canton MI 201 44 43 27:42.6 27:42.6 8:56/M
2 Vittorio Decina Plymouth MI 54 40 49 28:23.3 28:23.3 9:09/M
3 Edward Mann Grosse Ile MI 132 41 66 30:06.1 30:06.1 9:43/M
4 Brian Lombardo Macomb MI 129 44 118 38:33.2 38:33.2 12:26/M
5 Brian Chapman Pinckney MI 29 43 171 52:03.4 52:03.4 16:47/M

Female 45 to 49
Chip Gun
Place Name City Bib No Age Overall Time Time Pace
1 Davoren Chick Ann Arbor MI 42 46 51 28:38.5 28:38.5 9:14/M
2 Judy Goldberg Westland MI 279 45 69 30:27.5 30:27.5 9:49/M
3 Louise Mann Grosse Ile MI 133 45 95 34:36.9 34:36.9 11:10/M
4 Sherry Browning Canton MI 21 46 195 56:09.8 56:09.8 18:07/M
5 Carol Chapman Saline MI 30 49 203 56:48.7 56:48.7 18:19/M
6 Sue Hetzler Zionsville IN 91 48 211 58:14.4 58:14.4 18:47/M
7 Annie Stewart Northville MI 292 47 254 1:05:40.3 1:05:40.3 21:11/M
8 Cathy Smith Chesterfield MI 198 47 257 1:05:43.5 1:05:43.5 21:12/M
9 Holly Hoffman Fenton MI 96 47 264 1:08:11.8 1:08:11.8 22:00/M

Male 45 to 49
Chip Gun
Place Name City Bib No Age Overall Time Time Pace
1 Jeff Parks Fenton MI 170 46 79 32:14.1 32:14.1 10:24/M
2 Kurt Heinrich Ann Arbor MI 82 45 86 33:11.6 33:11.6 10:42/M
3 Tom Lobert Commerce Township 127 47 148 48:43.2 48:43.2 15:43/M
4 Greg Chapman Brighton MI 32 47 169 52:03.0 52:03.0 16:47/M
5 Mitch Chapman Pinckney MI 39 49 170 52:03.4 52:03.4 16:47/M
6 Mark Gentry Ypsilanti MI 62 47 178 52:59.4 52:59.4 17:05/M
7 Ron Behl Okemos MI 305 47 183 53:36.6 53:36.6 17:17/M
8 Jef Mallett Lansing MI 313 49 184 53:36.6 53:36.6 17:17/M
9 Peter Manning Howell MI 316 47 230 59:59.4 59:59.4 19:21/M
10 Shaine Deuperm Novi MI 280 47 246 1:02:55.4 1:02:55.4 20:18/M
11 Charles Ponder Dearborn Heights M 176 49 256 1:05:43.0 1:05:43.0 21:12/M

Female 50 to 54
Chip Gun
Place Name City Bib No Age Overall Time Time Pace
1 Rachel McCormack Canton MI 140 52 63 30:00.4 30:00.4 9:41/M
2 Mary Vandewiele Ann Arbor MI 224 54 77 31:50.4 31:50.4 10:16/M
3 Linda Vaughn Belleville MI 226 52 130 41:13.6 41:13.6 13:18/M
4 Camille Lawson Shelby Township MI 124 50 133 45:44.5 45:44.5 14:45/M
5 Pauline McEachin Warren MI 143 52 142 47:28.3 47:28.3 15:19/M
6 Helen Grifka Millington MI 288 50 151 48:56.7 48:56.7 15:47/M
7 Kathy Kernohan Livonia MI 302 52 155 49:21.9 49:21.9 15:55/M
8 Judy Opp Whitmore Lake MI 287 50 161 50:22.1 50:22.1 16:15/M
9 Deb Hilobuk Pinckney MI 95 53 174 52:06.0 52:06.0 16:48/M
10 Lynne Bowen Holly MI 15 50 247 1:02:55.9 1:02:55.9 20:18/M

Male 50 to 54
Chip Gun
Place Name City Bib No Age Overall Time Time Pace
1 Bruce Ball Ann Arbor MI 5 50 38 26:35.5 26:35.5 8:35/M
2 Ronald Dzierwa New Boston MI 56 54 42 27:27.5 27:27.5 8:51/M
3 Duane Grifka Millington MI 289 50 45 27:46.4 27:46.4 8:57/M
4 Karl Kunz Belleville MI 120 52 71 30:45.1 30:45.1 9:55/M
5 Mark Holsbeke Sterling Heights M 97 50 75 31:38.8 31:38.8 10:12/M
6 Richard McEachin Ann Arbor MI 144 54 150 48:56.3 48:56.3 15:47/M
7 Darence Betts Pontiac MI 12 54 164 51:06.4 51:06.4 16:29/M
8 Michael Brooks Whitmore Lake MI 297 50 181 53:19.7 53:19.7 17:12/M
9 Dale Stewart Northville MI 294 50 252 1:05:23.5 1:05:23.5 21:05/M

Female 55 to 59
Chip Gun
Place Name City Bib No Age Overall Time Time Pace
1 Beth Whittam Okemos MI 246 57 46 27:47.1 27:47.1 8:58/M
2 Lexanne Creitz Ann Arbor MI 271 56 48 28:16.8 28:16.8 9:07/M
3 Jane Walls Lexington MI 236 56 85 32:51.1 32:51.1 10:36/M
4 Rebecca Bawkon Ann Arbor MI 8 59 87 33:11.7 33:11.7 10:42/M
5 Joanne McKee Northville MI 146 57 109 36:28.4 36:28.4 11:46/M
6 Sarah Waldman Garden City MI 232 57 131 43:01.7 43:01.7 13:53/M
7 Nancy Stoyka Saint Clair Shores 209 58 132 44:35.2 44:35.2 14:23/M
8 Nina McEachin Ann Arbor MI 142 55 141 47:27.5 47:27.5 15:18/M
9 Kathy Horgan Farmington Hills M 99 59 198 56:18.6 56:18.6 18:10/M
10 Marcia Bawol Farmington MI 9 59 210 58:12.4 58:12.4 18:46/M
11 Laurie Colatruglio Saline MI 44 57 236 1:00:42.7 1:00:42.7 19:35/M
12 Cecile Heitsch Rochester Hills MI 307 57 244 1:02:55.1 1:02:55.1 20:18/M
13 Judy Peak Canton MI 172 57 266 1:12:01.3 1:12:01.3 23:14/M

Male 55 to 59
Chip Gun
Place Name City Bib No Age Overall Time Time Pace
1 John Cooper Ypsilanti MI 268 56 20 24:22.1 24:22.1 7:52/M
2 Gordon Young Wixom MI 264 56 82 32:28.6 32:28.6 10:28/M
3 Edward Lawson Shelby Township MI 125 57 134 45:45.0 45:45.0 14:45/M
4 Duane Taylor Lewiston MI 219 55 200 56:44.5 56:44.5 18:18/M
5 Matt Peak Canton MI 173 57 267 1:12:01.3 1:12:01.3 23:14/M

Female 60 to 64
Chip Gun
Place Name City Bib No Age Overall Time Time Pace
1 Sandra Momper Ann Arbor MI 157 60 139 46:59.2 46:59.2 15:09/M
2 Grace Harrison Ann Arbor MI 78 64 157 50:16.1 50:16.1 16:13/M
3 Kathie Wood Whitmore Lake MI 259 64 175 52:06.2 52:06.2 16:48/M
4 Su Burgess Brighton MI 23 61 188 55:24.3 55:24.3 17:52/M
5 Diane Gavin Lansing MI 61 62 189 55:44.1 55:44.1 17:59/M
6 Maureen Windel Lakeland MI 255 60 199 56:18.9 56:18.9 18:10/M
7 Anita Herman Manchester MI 88 64 225 59:29.8 59:29.8 19:11/M
8 Denise Watson Belleville MI 239 61 231 59:59.7 59:59.7 19:21/M
9 Mary Ellen McCaffrey Detroit MI 308 60 239 1:01:05.7 1:01:05.7 19:42/M
10 Karen Witt Winchester KY 269 62 250 1:03:19.4 1:03:19.4 20:25/M
11 Cynthia Brazee Lenox MI 322 63 251 1:03:47.9 1:03:47.9 20:35/M

Male 60 to 64
Chip Gun
Place Name City Bib No Age Overall Time Time Pace
1 Mark Delbrugge Southgate MI 266 60 34 26:18.6 26:18.6 8:29/M
2 Glenn Waldman Garden City MI 231 61 125 40:28.3 40:28.3 13:03/M
3 Wayne Wilson Ann Arbor MI 253 61 177 52:12.0 52:12.0 16:50/M
4 Vern Watson Belleville MI 242 61 205 57:46.0 57:46.0 18:38/M
5 Stanley Bawol Farmington MI 10 60 209 58:10.9 58:10.9 18:46/M
6 Alan Schroeder Monroe MI 190 62 262 1:06:32.4 1:06:32.4 21:28/M

Female 65 to 69
Chip Gun
Place Name City Bib No Age Overall Time Time Pace
1 Elizabeth Burt Ann Arbor MI 24 69 52 28:49.3 28:49.3 9:18/M
2 Renee Vettorello Saline MI 228 65 57 29:33.7 29:33.7 9:32/M
3 Pamela Horiszny Ann Arbor MI 298 65 65 30:01.3 30:01.3 9:41/M
4 Doris Chelune Saline MI 265 67 103 35:45.3 35:45.3 11:32/M
5 Jane Jansson Ann Arbor MI 102 65 136 46:57.1 46:57.1 15:09/M
6 Carol Schneider Ann Arbor MI 188 67 154 49:19.5 49:19.5 15:55/M
7 Jane Compton Ann Arbor MI 46 66 158 50:16.6 50:16.6 16:13/M
8 Margaret Nicholas East Lansing MI 166 66 160 50:21.9 50:21.9 16:15/M
9 Marsha Spear Fenton MI 203 65 167 51:12.0 51:12.0 16:31/M
10 Susan Byrne Pinckney MI 26 67 173 52:05.8 52:05.8 16:48/M
11 Sally Hamrick Westland MI 76 67 218 58:17.8 58:17.8 18:48/M
12 Gail Davison Lathrup Village MI 53 66 224 59:28.7 59:28.7 19:11/M

Male 65 to 69
Chip Gun
Place Name City Bib No Age Overall Time Time Pace
1 Dennis Finseth Ann Arbor MI 59 65 54 29:24.8 29:24.8 9:29/M
2 Owen Jansson Ann Arbor MI 103 66 137 46:57.5 46:57.5 15:09/M
3 Rick Hamrick Westland MI 75 67 219 58:19.8 58:19.8 18:49/M

Female 70 to 74
Chip Gun
Place Name City Bib No Age Overall Time Time Pace
1 Karen Holappa Plymouth MI 274 74 113 36:50.6 36:50.6 11:53/M
2 Zepherine Chapman Whitmore Lake MI 41 72 202 56:48.0 56:48.0 18:19/M
3 Lucille Stewart Northville MI 295 72 255 1:05:42.1 1:05:42.1 21:12/M

Male 70 to 74
Chip Gun
Place Name City Bib No Age Overall Time Time Pace
1 Marvin Chapman Whitmore Lake MI 38 74 145 47:32.1 47:32.1 15:20/M
2 Alan Kimball Sterling Heights M 109 70 237 1:01:05.2 1:01:05.2 19:42/M

Female 75 & up
Chip Gun
Place Name City Bib No Age Overall Time Time Pace
1 Pat Hill Franklin MI 93 85 208 58:09.2 58:09.2 18:45/M

Male 75 & up
Chip Gun
Place Name City Bib No Age Overall Time Time Pace
1 Jon Desenberg Ann Arbor MI 299 76 72 31:16.1 31:16.1 10:05/M
2 Eugene Hill Franklin MI 92 85 213 58:15.2 58:15.2 18:47/M


--------------------------------------------------------------------------------


Copyright © Everal Race Management Contact Greg Everal Email: everalracemanagement@comcast.net Phone: 734.507.1789